Latest Weather Observations for Combienbar

IDV60801

Issued at 8:05 pm EDT Monday 22 December 2014 (issued every 30 minutes, with the page automatically refreshed every 10 minutes)

About weather observations | Map of weather stations | Latest weather observations for VIC | Other Formats
Station Details ID: 084143 Name: COMBIENBAR AWS Lat: -37.34 Lon: 149.02 Height: 640.0 m
Data from the previous 72 hours. | See also: Recent months at Combienbar
Date/Time
EDT
Temp
°C
App
Temp
°C
Dew
Point
Rel
Hum
%
Delta-T
°C
Wind Press
QNH
hPa
Press
MSL
hPa
Rain
since 9 am
mm
Dir
 
Spd
km/h
Gust
km/h
Spd
kts
Gust
kts
22/08:00pm 18.8 18.5 13.2 70 3.3 NNE 7 15 4 8 1014.4 1012.4 4.4
22/07:30pm 17.8 18.7 14.1 79 2.2 E 2 7 1 4 1014.9 1012.8 4.4
22/07:00pm 18.9 18.9 13.7 72 3.1 NNW 6 13 3 7 1015.2 1013.1 3.8
22/06:30pm 18.4 18.9 14.9 80 2.1 NNE 6 13 3 7 1014.9 1012.8 3.6
22/06:00pm 19.3 18.3 13.5 69 3.4 NNW 11 24 6 13 1014.9 1012.8 2.0
22/05:30pm 22.8 21.7 11.8 50 6.4 NNE 9 17 5 9 1013.8 1011.7 0.0
22/05:00pm 24.2 22.4 10.8 43 7.7 NNE 11 22 6 12 1013.5 1011.4 0.0
22/04:30pm 26.2 25.7 12.6 43 8.1 NNE 7 15 4 8 1013.3 1011.2 0.0
22/04:00pm 27.6 28.3 15.6 48 7.5 NNE 6 9 3 5 1013.2 1011.1 0.0
22/03:30pm 27.3 27.7 14.7 46 7.8 NNE 6 9 3 5 1013.5 1011.4 0.0
22/03:00pm 29.8 29.6 11.8 33 10.8 E 4 7 2 4 1013.4 1011.3 0.0
22/02:30pm 30.3 29.5 9.8 28 11.9 NE 4 9 2 5 1013.9 1011.8 0.0
22/02:00pm 31.5 31.5 11.3 29 12.1 NNE 2 6 1 3 1014.3 1012.3 0.0
22/01:30pm 29.0 28.6 11.1 33 10.5 NE 4 9 2 5 1015.0 1012.9 0.0
22/01:00pm 31.4 32.3 14.1 35 10.8 NE 2 7 1 4 1015.6 1013.6 0.0
22/12:30pm 30.9 30.9 12.3 32 11.2 NNE 4 6 2 3 1016.2 1014.1 0.0
22/12:00pm 30.8 31.3 14.0 36 10.4 NE 4 7 2 4 1016.3 1014.2 0.0
22/11:30am 29.6 30.3 13.4 37 9.9 NE 2 6 1 3 1016.3 1014.2 0.0
22/11:00am 29.9 31.5 16.0 43 8.8 NE 2 4 1 2 1016.5 1014.4 0.0
22/10:30am 27.1 29.0 15.8 50 7.1 CALM 0 6 0 3 1016.5 1014.4 0.0
22/10:00am 26.7 27.8 14.5 47 7.5 NNW 2 6 1 3 1016.6 1014.5 0.0
22/09:30am 24.9 27.3 16.9 61 5.1 CALM 0 4 0 2 1016.8 1014.7 0.0
22/09:00am 24.3 26.2 16.6 62 4.8 E 2 9 1 5 1016.9 1014.8 0.0
22/08:30am 24.7 27.4 17.7 65 4.5 CALM 0 0 0 0 1016.8 1014.7 0.0
22/08:00am 22.9 24.7 16.4 67 4.1 N 2 6 1 3 1016.4 1014.3 0.0
22/07:30am 21.0 22.9 15.8 72 3.2 CALM 0 4 0 2 1016.3 1014.2 0.0
22/07:00am 19.8 21.0 15.0 74 2.9 NE 2 4 1 2 1016.2 1014.1 0.0
22/06:30am 18.3 19.1 13.6 74 2.8 NNE 2 4 1 2 1016.0 1014.0 0.0
22/06:00am 17.5 18.3 12.6 73 2.8 CALM 0 4 0 2 1015.9 1013.9 0.0
22/05:30am 16.8 17.0 11.9 73 2.8 NE 2 7 1 4 1015.9 1013.9 0.0
22/05:00am 16.8 16.9 11.5 71 3.0 NE 2 4 1 2 1015.7 1013.7 0.0
22/04:30am 16.8 16.5 11.3 70 3.1 NNE 4 7 2 4 1015.9 1013.9 0.0
22/04:00am 16.9 16.1 11.0 68 3.3 NNE 6 6 3 3 1016.3 1014.2 0.0
22/03:30am 17.5 17.0 10.6 64 3.8 ENE 4 7 2 4 1016.3 1014.2 0.0
22/03:00am 17.3 16.8 10.7 65 3.6 NE 4 7 2 4 1016.4 1014.3 0.0
22/02:30am 18.1 18.0 10.7 62 4.1 ESE 2 7 1 4 1016.7 1014.6 0.0
22/02:00am 18.3 18.2 10.7 61 4.2 SE 2 7 1 4 1016.6 1014.5 0.0
22/01:30am 18.1 17.7 11.2 64 3.9 S 4 11 2 6 1016.7 1014.6 0.0
22/01:00am 18.2 18.2 11.3 64 3.9 SSE 2 7 1 4 1016.8 1014.7 0.0
22/12:30am 18.8 18.9 11.4 62 4.2 SSE 2 6 1 3 1016.8 1014.7 0.0
22/12:00am 18.5 18.6 11.6 64 3.9 NNE 2 6 1 3 1016.9 1014.8 0.0
 
Date/Time
EDT
Temp
°C
App
Temp
°C
Dew
Point
Rel
Hum
%
Delta-T
°C
Wind Press
QNH
hPa
Press
MSL
hPa
Rain
since 9 am
mm
Dir
 
Spd
km/h
Gust
km/h
Spd
kts
Gust
kts
21/11:30pm 19.5 19.5 12.3 63 4.1 NE 4 9 2 5 1017.0 1015.0 0.0
21/11:00pm 18.7 18.8 11.5 63 4.1 NNE 2 7 1 4 1017.2 1015.2 0.0
21/10:30pm 19.7 20.2 11.5 59 4.7 CALM 0 2 0 1 1017.7 1015.7 0.0
21/10:00pm 18.9 18.4 9.4 54 5.2 NNE 2 6 1 3 1017.6 1015.6 0.0
21/09:30pm 19.1 18.6 7.8 48 6.0 CALM 0 2 0 1 1017.4 1015.4 0.0
21/09:00pm 19.6 19.3 8.6 49 5.9 CALM 0 0 0 0 1017.1 1015.1 0.0
21/08:30pm 20.2 19.8 8.2 46 6.4 CALM 0 0 0 0 1017.5 1015.5 0.0
21/08:00pm 20.6 20.2 8.3 45 6.6 CALM 0 0 0 0 1017.4 1015.4 0.0
21/07:30pm 21.2 20.9 8.8 45 6.8 CALM 0 0 0 0 1017.2 1015.2 0.0
21/07:00pm 21.8 21.6 9.0 44 7.0 CALM 0 0 0 0 1016.8 1014.7 0.0
21/06:30pm 23.1 23.2 10.2 44 7.3 CALM 0 2 0 1 1016.6 1014.5 0.0
21/06:00pm 24.1 24.2 10.0 41 8.0 CALM 0 2 0 1 1016.3 1014.2 0.0
21/05:30pm 25.2 25.0 10.6 40 8.4 SSW 2 4 1 2 1016.4 1014.3 0.0
21/05:00pm 24.7 25.1 12.6 47 7.2 SSW 2 4 1 2 1016.4 1014.3 0.0
21/04:30pm 25.6 26.7 13.5 47 7.3 CALM 0 2 0 1 1016.4 1014.3 0.0
21/04:00pm 24.6 25.3 13.5 50 6.7 SSW 2 4 1 2 1016.5 1014.4 0.0
21/03:30pm 25.9 26.6 13.4 46 7.5 SSW 2 7 1 4 1016.7 1014.6 0.0
21/03:00pm 25.8 26.4 13.0 45 7.7 SSW 2 6 1 3 1016.9 1014.8 0.0
21/02:30pm 26.4 26.9 12.8 43 8.1 SSW 2 6 1 3 1016.8 1014.7 0.0
21/02:00pm 26.1 26.6 12.9 44 7.9 SSW 2 6 1 3 1016.7 1014.6 0.0
21/01:30pm 25.1 25.9 12.7 46 7.4 CALM 0 4 0 2 1016.9 1014.8 0.0
21/01:00pm 24.9 26.4 14.7 53 6.2 CALM 0 2 0 1 1017.1 1015.1 0.0
21/12:30pm 23.7 25.2 14.7 57 5.5 CALM 0 4 0 2 1017.5 1015.5 0.0
21/12:00pm 23.0 24.7 15.1 61 4.8 CALM 0 4 0 2 1017.4 1015.4 0.0
21/11:30am 22.1 23.7 15.0 64 4.3 CALM 0 2 0 1 1017.7 1015.7 0.0
21/11:00am 21.3 23.0 15.2 68 3.7 CALM 0 0 0 0 1017.6 1015.6 0.0
21/10:30am 20.4 21.8 14.5 69 3.5 CALM 0 4 0 2 1017.7 1015.7 0.0
21/10:00am 18.4 19.4 13.1 71 3.1 CALM 0 4 0 2 1018.0 1015.9 0.0
21/09:30am 17.1 17.9 12.6 75 2.6 CALM 0 0 0 0 1018.0 1015.9 0.0
21/09:00am 18.0 18.9 12.9 72 2.9 CALM 0 0 0 0 1017.6 1015.6 0.0
21/08:30am 19.3 20.3 14.3 73 3.0 NE 2 7 1 4 1017.5 1015.5 0.0
21/08:00am 17.8 17.8 12.3 70 3.1 E 4 7 2 4 1017.1 1015.1 0.0
21/07:30am 16.9 16.4 12.0 73 2.8 ESE 6 9 3 5 1017.0 1015.0 0.0
21/07:00am 15.6 15.5 12.0 79 2.0 ENE 4 6 2 3 1016.8 1014.7 0.0
21/06:30am 14.3 14.3 11.1 81 1.8 NE 2 7 1 4 1016.9 1014.8 0.0
21/06:00am 13.3 13.5 10.7 84 1.4 CALM 0 0 0 0 1016.9 1014.8 0.0
21/05:30am 12.4 12.6 10.5 88 1.0 CALM 0 0 0 0 1016.7 1014.6 0.0
21/05:00am 11.6 11.8 10.7 94 0.5 CALM 0 0 0 0 1016.8 1014.7 0.0
21/04:30am 10.6 10.7 10.0 96 0.3 CALM 0 0 0 0 1016.9 1014.8 0.0
21/04:00am 10.4 10.4 9.8 96 0.3 CALM 0 0 0 0 1017.2 1015.2 0.0
21/03:30am 10.1 10.0 9.5 96 0.3 CALM 0 0 0 0 1017.4 1015.4 0.0
21/03:00am 10.4 10.4 9.8 96 0.3 CALM 0 0 0 0 1017.7 1015.7 0.0
21/02:30am 10.3 10.2 9.5 95 0.4 CALM 0 0 0 0 1017.9 1015.8 0.0
21/02:00am 10.5 10.5 9.7 95 0.4 CALM 0 0 0 0 1018.2 1016.1 0.0
21/01:30am 10.7 10.7 9.9 95 0.4 CALM 0 0 0 0 1018.4 1016.4 0.0
21/01:00am 10.8 10.9 10.0 95 0.4 CALM 0 0 0 0 1018.5 1016.5 0.0
21/12:30am 11.2 11.3 10.0 92 0.6 CALM 0 0 0 0 1018.6 1016.6 0.0
21/12:00am 11.8 12.0 10.4 91 0.7 CALM 0 0 0 0 1018.8 1016.8 0.0
 
Date/Time
EDT
Temp
°C
App
Temp
°C
Dew
Point
Rel
Hum
%
Delta-T
°C
Wind Press
QNH
hPa
Press
MSL
hPa
Rain
since 9 am
mm
Dir
 
Spd
km/h
Gust
km/h
Spd
kts
Gust
kts
20/11:30pm 12.0 12.2 10.6 91 0.7 CALM 0 0 0 0 1019.0 1017.0 0.0
20/11:00pm 12.2 12.4 10.6 90 0.9 CALM 0 0 0 0 1019.2 1017.2 0.0
20/10:30pm 12.5 12.7 10.6 88 1.0 CALM 0 0 0 0 1019.4 1017.4 0.0
20/10:00pm 12.7 12.9 10.6 87 1.1 CALM 0 0 0 0 1019.4 1017.4 0.0
20/09:30pm 13.1 13.3 10.6 85 1.3 CALM 0 0 0 0 1019.2 1017.2 0.0
20/09:00pm 13.4 13.6 10.4 82 1.6 CALM 0 0 0 0 1019.0 1017.0 0.0
20/08:30pm 13.7 13.9 10.5 81 1.7 CALM 0 0 0 0 1018.9 1016.9 0.0
20/08:00pm 14.5 14.7 10.7 78 2.1 CALM 0 0 0 0 1018.7 1016.7 0.0
20/07:30pm 15.5 15.5 11.3 76 2.3 SSW 2 6 1 3 1018.5 1016.5 0.0
20/07:00pm 16.3 16.8 11.5 73 2.7 CALM 0 0 0 0 1018.3 1016.2 0.0
20/06:30pm 17.5 17.9 11.3 67 3.5 CALM 0 4 0 2 1018.0 1015.9 0.0
20/06:00pm 18.9 19.5 11.9 64 4.0 CALM 0 4 0 2 1017.7 1015.7 0.0
20/05:30pm 19.4 19.5 11.4 60 4.5 SW 2 6 1 3 1017.6 1015.6 0.0
20/05:00pm 19.6 20.0 12.4 63 4.1 SSW 2 6 1 3 1017.7 1015.7 0.0
20/04:30pm 19.7 19.9 11.7 60 4.6 SW 2 6 1 3 1017.6 1015.6 0.0
20/04:00pm 20.0 20.2 11.8 59 4.7 SSW 2 6 1 3 1017.7 1015.7 0.0
20/03:30pm 20.6 20.9 12.1 58 4.9 SW 2 6 1 3 1018.0 1015.9 0.0
20/03:00pm 20.5 20.7 11.7 57 5.0 SSW 2 6 1 3 1018.1 1016.0 0.0
20/02:30pm 19.7 19.6 10.7 56 5.0 SW 2 6 1 3 1018.1 1016.0 0.0
20/02:00pm 19.9 19.9 11.1 57 5.0 SW 2 4 1 2 1018.0 1015.9 0.0
20/01:30pm 19.7 19.9 10.4 55 5.2 CALM 0 4 0 2 1018.2 1016.1 0.0
20/01:00pm 18.8 18.4 9.6 55 5.0 SW 2 6 1 3 1018.4 1016.4 0.0
20/12:30pm 18.2 17.8 9.8 58 4.6 SW 2 6 1 3 1018.6 1016.6 0.0
20/12:00pm 18.1 17.6 9.2 56 4.8 SSW 2 6 1 3 1018.6 1016.6 0.0
20/11:30am 16.9 16.2 8.6 58 4.4 SSW 2 6 1 3 1018.5 1016.5 0.0
20/11:00am 15.4 15.0 8.4 63 3.7 CALM 0 4 0 2 1018.5 1016.5 0.0
20/10:30am 14.8 14.5 8.5 66 3.3 CALM 0 2 0 1 1018.4 1016.4 0.0
20/10:00am 13.8 13.4 8.4 70 2.8 CALM 0 4 0 2 1018.5 1016.5 0.0
20/09:30am 12.3 11.8 7.8 74 2.3 CALM 0 2 0 1 1018.7 1016.7 0.0
20/09:00am 11.9 11.4 8.0 77 2.0 CALM 0 2 0 1 1018.7 1016.7 0.0
20/08:30am 10.8 10.0 6.7 76 2.0 CALM 0 4 0 2 1018.6 1016.6 0.0
20/08:00am 11.4 10.9 7.9 79 1.8 CALM 0 4 0 2 1018.4 1016.4 0.0
20/07:30am 11.2 10.6 7.3 77 1.9 CALM 0 4 0 2 1018.3 1016.2 0.0
20/07:00am 10.7 10.2 7.9 83 1.4 CALM 0 0 0 0 1018.2 1016.1 0.0
20/06:30am 9.3 8.4 6.2 81 1.5 CALM 0 4 0 2 1017.7 1015.7 0.0
20/06:00am 8.3 7.3 5.6 83 1.3 CALM 0 0 0 0 1017.6 1015.6 0.0
20/05:30am 8.7 7.6 5.3 79 1.6 CALM 0 0 0 0 1017.5 1015.5 0.0
20/05:00am 8.8 7.8 5.4 79 1.6 CALM 0 0 0 0 1017.6 1015.6 0.0
20/04:30am 8.9 7.9 5.5 79 1.6 CALM 0 0 0 0 1017.4 1015.4 0.0
20/04:00am 8.8 7.8 5.4 79 1.6 CALM 0 0 0 0 1017.4 1015.4 0.0
20/03:30am 8.6 7.5 5.2 79 1.6 CALM 0 2 0 1 1017.6 1015.6 0.0
20/03:00am 8.6 7.6 5.5 81 1.5 CALM 0 0 0 0 1017.7 1015.7 0.0
20/02:30am 9.3 7.6 6.0 80 1.6 SW 4 6 2 3 1018.0 1015.9 0.0
20/02:00am 9.2 7.5 6.1 81 1.5 SW 4 9 2 5 1018.1 1016.0 0.0
20/01:30am 9.1 7.5 6.4 83 1.3 SW 4 9 2 5 1018.4 1016.4 0.0
20/01:00am 8.3 7.4 6.1 86 1.0 CALM 0 0 0 0 1018.6 1016.6 0.0
20/12:30am 8.8 7.3 6.6 86 1.1 SW 4 7 2 4 1018.9 1016.9 0.0
20/12:00am 8.9 8.1 6.7 86 1.1 CALM 0 0 0 0 1019.2 1017.2 0.0
 
Date/Time
EDT
Temp
°C
App
Temp
°C
Dew
Point
Rel
Hum
%
Delta-T
°C
Wind Press
QNH
hPa
Press
MSL
hPa
Rain
since 9 am
mm
Dir
 
Spd
km/h
Gust
km/h
Spd
kts
Gust
kts
19/11:30pm 9.6 8.5 6.9 83 1.3 SSW 2 6 1 3 1019.4 1017.4 0.0
19/11:00pm 9.6 8.5 6.7 82 1.4 SW 2 6 1 3 1019.4 1017.4 0.0
19/10:30pm 9.6 8.8 6.7 82 1.4 CALM 0 4 0 2 1019.3 1017.3 0.0
19/10:00pm 9.6 8.8 6.5 81 1.5 CALM 0 4 0 2 1019.3 1017.3 0.0
19/09:30pm 9.6 8.5 6.9 83 1.3 SSW 2 4 1 2 1019.2 1017.2 0.0
19/09:00pm 9.6 9.0 7.2 85 1.2 CALM 0 4 0 2 1019.0 1017.0 0.0
19/08:30pm 9.8 8.8 7.4 85 1.2 SSW 2 6 1 3 1018.9 1016.9 0.0

Other Formats:

Comma delimited format used in spreadsheet applications
http://www.bom.gov.au/fwo/IDV60801/IDV60801.94914.axf

JavaScript Object Notation format (JSON) in row-major order
http://www.bom.gov.au/fwo/IDV60801/IDV60801.94914.json